Impacts METAR Board
IDs:

KPHX - Phoenix/Sky Harbor, AZ, US

Updated at: 1900 UTC 08 Feb 2023
Potential Impact None Slight Moderate High
Time 08/07Z 08/08Z 08/09Z 08/10Z 08/11Z 08/12Z 08/13Z 08/14Z 08/15Z 08/16Z 08/17Z 08/18Z 08/19Z
Temp56 51 49 49 47 45 45 45 45 49 53 59 62
Dewpt21 23 26 25 24 25 26 26 25 26 24 22 24
Altim30.20 30.21 30.20 30.20 30.20 30.20 30.22 30.23 30.25 30.26 30.27 30.28 30.25
VIS10 10 10 10 10 10 10 10 10 10 10 10 10
CIG-- -- -- -- -- -- -- -- 270 270 270 270 270
CoverCLRCLRCLRCLRCLRFEWFEWFEWBKNBKNBKNBKNBKN
FltCatVFRVFRVFRVFRVFRVFRVFRVFRVFRVFRVFRVFRVFR
WX--------------------------
WDir01101109090110080110100070140
WSpd0 3 5 3 5 3 0 4 5 5 0 6 7
WGst-- -- -- -- -- -- -- -- -- -- -- -- --
Raw hourly METARs
KPHX 080651Z 00000KT 10SM CLR 13/M06 A3020 RMK AO2 SLP219 T01331061 402060061
KPHX 080751Z 11003KT 10SM CLR 11/M05 A3021 RMK AO2 SLP222 T01061050
KPHX 080851Z 11005KT 10SM CLR 09/M03 A3020 RMK AO2 SLP221 T00941033 50005
KPHX 080951Z 09003KT 10SM CLR 09/M04 A3020 RMK AO2 SLP220 T00941039
KPHX 081051Z 09005KT 10SM CLR 08/M04 A3020 RMK AO2 SLP221 T00831044
KPHX 081151Z 11003KT 10SM FEW120 07/M04 A3020 RMK AO2 SLP221 T00721039 10139 20067 53000
KPHX 081251Z 00000KT 10SM FEW120 07/M03 A3022 RMK AO2 SLP228 T00721033
KPHX 081351Z 08004KT 10SM FEW150 07/M03 A3023 RMK AO2 SLP232 T00721033
KPHX 081451Z 11005KT 10SM FEW150 BKN270 07/M04 A3025 RMK AO2 SLP239 T00721039 51015
KPHX 081551Z 10005KT 10SM FEW150 BKN270 09/M03 A3026 RMK AO2 SLP243 T00941033
KPHX 081651Z 00000KT 10SM FEW150 BKN270 12/M04 A3027 RMK AO2 SLP246 T01171044
KPHX 081751Z 07006KT 10SM FEW150 BKN270 15/M06 A3028 RMK AO2 SLP246 T01501056 10156 20056 51009
KPHX 081851Z 14007KT 10SM FEW180 BKN270 17/M04 A3025 RMK AO2 SLP236 T01671044



Page loaded:  19:49 UTC  |   11:49 AM Pacific  |   12:49 PM Mountain  |   01:49 PM Central  |   02:49 PM Eastern

 

ADVISORIES

FORECASTS

FORECASTS

OBSERVATIONS

USER TOOLS

ABOUT US